Terminal Aerodrome Forecast
Issued by NWS Albuquerque, NM

Home | Current Version | Previous Version | Text Only | Print | Product List | Glossary On
Versions: 1 2 3 4 5 6 7 8 9 10 11 12 13 14 15 16 17
000
FTUS45 KABQ 280500
TAFABQ
TAF
KABQ 280538Z 2806/2906 09011KT P6SM VCSH SCT060 SCT100
     FM281000 VRB06KT P6SM FEW060 SCT100
     FM281500 13008KT P6SM SCT090 SCT150
     FM282100 17011KT P6SM VCTS SCT080CB BKN130
     FM290000 09010KT P6SM VCSH BKN100=

USA.gov is the U.S. government's official web portal to all federal, state and local government web resources and services.